createdAt,value
2018-02-24T00:00:47.720Z,18.62
2018-02-24T00:03:15.308Z,17.95
2018-02-24T00:05:43.609Z,18.35
2018-02-24T00:08:11.158Z,17.95
2018-02-24T00:10:38.703Z,19.20
2018-02-24T00:13:07.002Z,19.80
2018-02-24T00:15:34.564Z,19.00
2018-02-24T00:18:02.160Z,19.02
2018-02-24T00:20:29.759Z,18.08
2018-02-24T00:22:57.376Z,19.95
2018-02-24T00:25:24.989Z,20.25
2018-02-24T00:27:52.563Z,20.00
2018-02-24T00:30:20.112Z,18.35
2018-02-24T00:32:47.672Z,18.17
2018-02-24T00:35:15.215Z,18.35
2018-02-24T00:37:42.744Z,17.80
2018-02-24T00:40:11.091Z,19.33
2018-02-24T00:42:38.636Z,19.87
2018-02-24T00:45:06.176Z,18.92
2018-02-24T00:47:34.482Z,19.50
2018-02-24T00:50:02.033Z,19.52
2018-02-24T00:52:29.578Z,19.83
2018-02-24T00:54:57.890Z,19.90
2018-02-24T00:57:25.468Z,19.52
2018-02-24T00:59:53.015Z,19.00
2018-02-24T01:02:20.554Z,19.52
2018-02-24T01:04:48.898Z,20.27
2018-02-24T01:07:16.436Z,19.08
2018-02-24T01:09:43.972Z,19.35
2018-02-24T01:12:12.283Z,19.77
2018-02-24T01:14:39.831Z,18.83
2018-02-24T01:17:08.156Z,19.10
2018-02-24T01:19:35.707Z,19.60
2018-02-24T01:22:03.253Z,18.80
2018-02-24T01:24:30.990Z,18.98
2018-02-24T01:26:59.304Z,18.85
2018-02-24T01:29:26.870Z,18.80
2018-02-24T01:31:54.402Z,18.37
2018-02-24T01:34:22.865Z,17.55
2018-02-24T01:36:50.402Z,18.40
2018-02-24T01:39:17.927Z,19.15
2018-02-24T01:41:46.263Z,19.23
2018-02-24T01:44:14.577Z,19.80
2018-02-24T01:46:42.096Z,18.75
2018-02-24T01:49:09.648Z,19.42
2018-02-24T01:51:37.276Z,19.83
2018-02-24T01:54:04.820Z,18.50
2018-02-24T01:56:32.374Z,19.40
2018-02-24T01:58:59.987Z,18.48
2018-02-24T02:01:28.299Z,19.02
2018-02-24T02:03:55.829Z,19.05
2018-02-24T02:06:24.146Z,19.25
2018-02-24T02:08:51.772Z,19.83
2018-02-24T02:11:19.344Z,19.67
2018-02-24T02:13:47.641Z,18.90
2018-02-24T02:16:15.950Z,19.73
2018-02-24T02:18:43.515Z,20.73
2018-02-24T02:21:11.133Z,20.12
2018-02-24T02:23:38.688Z,18.17
2018-02-24T02:26:06.240Z,19.67
2018-02-24T02:28:33.797Z,18.80
2018-02-24T02:31:02.143Z,19.10
2018-02-24T02:33:29.679Z,18.12
2018-02-24T02:35:57.372Z,18.60
2018-02-24T02:38:25.840Z,18.52
2018-02-24T02:40:53.380Z,19.00
2018-02-24T02:43:20.937Z,18.95
2018-02-24T02:45:48.472Z,19.42
2018-02-24T02:48:16.059Z,19.10
2018-02-24T02:50:43.604Z,17.77
2018-02-24T02:53:11.155Z,18.40
2018-02-24T02:55:38.711Z,19.73
2018-02-24T02:58:07.160Z,18.12
2018-02-24T03:00:34.726Z,17.83
2018-02-24T03:03:02.372Z,17.83
2018-02-24T03:05:29.909Z,16.67
2018-02-24T03:07:57.441Z,17.77
2018-02-24T03:10:25.757Z,18.95
2018-02-24T03:12:53.317Z,19.10
2018-02-24T03:15:20.943Z,17.95
2018-02-24T03:17:48.469Z,18.40
2018-02-24T03:20:16.016Z,18.45
2018-02-24T03:22:43.568Z,18.30
2018-02-24T03:25:11.902Z,18.48
2018-02-24T03:27:39.454Z,17.40
2018-02-24T03:30:07.016Z,20.58
2018-02-24T03:32:34.566Z,19.50
2018-02-24T03:35:02.308Z,18.60
2018-02-24T03:37:29.907Z,18.75
2018-02-24T03:39:57.453Z,18.10
2018-02-24T03:42:25.026Z,18.00
2018-02-24T03:44:52.550Z,20.08
2018-02-24T03:47:20.263Z,19.33
2018-02-24T03:49:47.801Z,17.42
2018-02-24T03:52:15.348Z,18.55
2018-02-24T03:54:42.928Z,18.42
2018-02-24T03:57:10.457Z,18.90
2018-02-24T03:59:38.001Z,19.35
2018-02-24T04:02:05.556Z,19.83
2018-02-24T04:04:33.107Z,18.65
2018-02-24T04:07:01.438Z,19.40
2018-02-24T04:09:29.025Z,19.05
2018-02-24T04:11:56.583Z,18.73
2018-02-24T04:14:24.125Z,19.17
2018-02-24T04:16:51.672Z,19.33
2018-02-24T04:19:19.233Z,18.23
2018-02-24T04:21:46.803Z,18.87
2018-02-24T04:24:14.344Z,18.90
2018-02-24T04:26:42.655Z,18.33
2018-02-24T04:29:10.210Z,18.42
2018-02-24T04:31:37.773Z,18.42
2018-02-24T04:34:05.294Z,18.30
2018-02-24T04:36:32.845Z,18.80
2018-02-24T04:39:00.416Z,19.87
2018-02-24T04:41:27.955Z,21.05
2018-02-24T04:43:55.501Z,19.30
2018-02-24T04:46:23.030Z,17.17
2018-02-24T04:48:50.703Z,19.67
2018-02-24T04:51:18.231Z,18.05
2018-02-24T04:53:45.780Z,18.98
2018-02-24T04:56:13.535Z,19.10
2018-02-24T04:58:41.078Z,20.00
2018-02-24T05:01:09.389Z,17.92
2018-02-24T05:03:36.919Z,20.42
2018-02-24T05:06:05.230Z,19.08
2018-02-24T05:08:32.896Z,18.98
2018-02-24T05:11:00.431Z,18.10
2018-02-24T05:13:28.755Z,18.95
2018-02-24T05:15:56.290Z,17.60
2018-02-24T05:18:24.737Z,19.15
2018-02-24T05:20:53.293Z,20.17
2018-02-24T05:23:20.834Z,17.50
2018-02-24T05:25:48.393Z,20.60
2018-02-24T05:28:16.709Z,19.83
2018-02-24T05:30:44.415Z,19.90
2018-02-24T05:33:11.976Z,21.65
2018-02-24T05:35:39.573Z,18.67
2018-02-24T05:38:08.031Z,19.23
2018-02-24T05:40:35.578Z,18.65
2018-02-24T05:43:03.125Z,18.83
2018-02-24T05:45:30.721Z,17.95
2018-02-24T05:47:58.262Z,18.35
2018-02-24T05:50:25.814Z,19.60
2018-02-24T05:52:53.338Z,18.62
2018-02-24T05:55:20.888Z,18.45
2018-02-24T05:57:49.189Z,20.17
2018-02-24T06:00:16.716Z,21.23
2018-02-24T06:02:44.278Z,20.60
2018-02-24T06:05:11.812Z,18.50
2018-02-24T06:07:39.359Z,20.17
2018-02-24T06:10:07.970Z,19.73
2018-02-24T06:12:35.540Z,20.00
2018-02-24T06:15:03.109Z,20.73
2018-02-24T06:17:30.659Z,20.65
2018-02-24T06:19:58.988Z,20.05
2018-02-24T06:22:26.551Z,20.35
2018-02-24T06:24:54.888Z,20.20
2018-02-24T06:27:23.198Z,20.90
2018-02-24T06:29:50.753Z,20.20
2018-02-24T06:32:18.294Z,20.05
2018-02-24T06:34:46.711Z,19.83
2018-02-24T06:37:14.274Z,20.85
2018-02-24T06:39:41.876Z,20.25
2018-02-24T06:42:09.427Z,20.17
2018-02-24T06:44:36.975Z,19.17
2018-02-24T06:47:04.542Z,18.50
2018-02-24T06:49:32.072Z,19.45
2018-02-24T06:52:00.402Z,20.02
2018-02-24T06:54:27.932Z,18.83
2018-02-24T06:56:55.495Z,20.83
2018-02-24T06:59:23.821Z,18.73
2018-02-24T07:01:51.357Z,18.42
2018-02-24T07:04:18.893Z,18.70
2018-02-24T07:06:47.195Z,18.37
2018-02-24T07:09:14.724Z,19.62
2018-02-24T07:11:42.347Z,19.62
2018-02-24T07:14:09.899Z,20.15
2018-02-24T07:16:37.423Z,18.90
2018-02-24T07:19:04.960Z,17.12
2018-02-24T07:21:32.632Z,18.25
2018-02-24T07:24:00.194Z,20.10
2018-02-24T07:26:27.731Z,18.85
2018-02-24T07:28:55.281Z,20.10
2018-02-24T07:31:22.836Z,19.83
2018-02-24T07:33:50.403Z,19.58
2018-02-24T07:36:18.728Z,19.67
2018-02-24T07:38:46.265Z,20.02
2018-02-24T07:41:13.806Z,19.12
2018-02-24T07:43:42.121Z,21.33
2018-02-24T07:46:09.685Z,17.05
2018-02-24T07:48:37.279Z,18.58
2018-02-24T07:51:04.919Z,20.45
2018-02-24T07:53:32.451Z,20.05
2018-02-24T07:56:00.758Z,18.75
2018-02-24T07:58:28.299Z,20.45
2018-02-24T08:00:55.879Z,19.62
2018-02-24T08:03:24.196Z,20.27
2018-02-24T08:05:51.729Z,14.77
2018-02-24T08:08:19.263Z,18.42
2018-02-24T08:10:46.820Z,20.83
2018-02-24T08:13:14.373Z,16.70
2018-02-24T08:15:41.923Z,19.27
2018-02-24T08:18:09.470Z,18.55
2018-02-24T08:20:36.997Z,20.40
2018-02-24T08:23:04.597Z,21.25
2018-02-24T08:25:32.154Z,19.83
2018-02-24T08:27:59.743Z,19.65
2018-02-24T08:30:27.293Z,20.12
2018-02-24T08:32:54.864Z,19.92
2018-02-24T08:35:23.247Z,21.20
2018-02-24T08:37:50.818Z,19.70
2018-02-24T08:40:18.368Z,19.80
2018-02-24T08:42:45.910Z,20.90
2018-02-24T08:45:14.330Z,16.25
2018-02-24T08:47:41.881Z,18.85
2018-02-24T08:50:09.463Z,20.00
2018-02-24T08:52:37.005Z,20.37
2018-02-24T08:55:05.334Z,19.98
2018-02-24T08:57:32.898Z,21.08
2018-02-24T09:00:00.489Z,20.98
2018-02-24T09:02:28.047Z,21.35
2018-02-24T09:04:55.596Z,19.00
2018-02-24T09:07:23.145Z,21.05
2018-02-24T09:09:50.674Z,18.48
2018-02-24T09:12:18.978Z,21.02
2018-02-24T09:14:46.617Z,19.05
2018-02-24T09:17:14.959Z,20.05
2018-02-24T09:19:42.603Z,17.58
2018-02-24T09:22:10.131Z,19.87
2018-02-24T09:24:38.453Z,21.17
2018-02-24T09:27:06.016Z,19.95
2018-02-24T09:29:33.550Z,21.77
2018-02-24T09:32:01.911Z,21.12
2018-02-24T09:34:29.461Z,21.25
2018-02-24T09:36:57.003Z,19.98
2018-02-24T09:39:24.564Z,19.75
2018-02-24T09:41:52.114Z,18.30
2018-02-24T09:44:19.735Z,19.58
2018-02-24T09:46:47.279Z,19.23
2018-02-24T09:49:14.831Z,20.77
2018-02-24T09:51:42.495Z,19.37
2018-02-24T09:54:10.045Z,18.35
2018-02-24T09:56:37.822Z,18.92
2018-02-24T09:59:05.363Z,19.90
2018-02-24T10:01:33.678Z,18.85
2018-02-24T10:04:01.226Z,19.27
2018-02-24T10:06:28.765Z,18.55
2018-02-24T10:08:56.336Z,17.23
2018-02-24T10:11:23.875Z,19.25
2018-02-24T10:13:51.585Z,18.05
2018-02-24T10:16:19.970Z,18.62
2018-02-24T10:18:48.324Z,18.45
2018-02-24T10:21:15.878Z,16.52
2018-02-24T10:23:43.435Z,17.15
2018-02-24T10:26:10.978Z,17.52
2018-02-24T10:28:38.558Z,16.20
2018-02-24T10:31:06.113Z,17.98
2018-02-24T10:33:33.667Z,16.50
2018-02-24T10:36:01.213Z,17.17
2018-02-24T10:38:28.826Z,17.83
2018-02-24T10:40:56.399Z,16.80
2018-02-24T10:43:23.935Z,17.40
2018-02-24T10:45:51.489Z,17.60
2018-02-24T10:48:19.042Z,17.17
2018-02-24T10:50:47.351Z,16.75
2018-02-24T10:53:14.907Z,17.27
2018-02-24T10:55:42.481Z,18.58
2018-02-24T10:58:10.026Z,16.75
2018-02-24T11:00:37.578Z,17.33
2018-02-24T11:03:05.934Z,16.92
2018-02-24T11:05:33.512Z,17.85
2018-02-24T11:08:01.046Z,17.17
2018-02-24T11:10:28.599Z,17.62
2018-02-24T11:12:56.140Z,17.67
2018-02-24T11:15:23.687Z,16.55
2018-02-24T11:17:52.006Z,17.02
2018-02-24T11:20:19.558Z,16.65
2018-02-24T11:22:47.114Z,17.62
2018-02-24T11:25:14.651Z,16.92
2018-02-24T11:27:42.196Z,17.85
2018-02-24T11:30:09.872Z,16.55
2018-02-24T11:32:37.408Z,15.63
2018-02-24T11:35:04.898Z,16.05
2018-02-24T11:37:32.429Z,16.55
2018-02-24T11:39:59.977Z,17.30
2018-02-24T11:42:27.581Z,16.77
2018-02-24T11:44:55.129Z,16.62
2018-02-24T11:47:22.655Z,16.90
2018-02-24T11:49:50.960Z,14.75
2018-02-24T11:52:18.505Z,15.93
2018-02-24T11:54:46.838Z,16.92
2018-02-24T11:57:14.392Z,16.50
2018-02-24T11:59:42.017Z,15.82
2018-02-24T12:02:10.348Z,16.87
2018-02-24T12:04:37.896Z,16.55
2018-02-24T12:07:05.467Z,16.00
2018-02-24T12:09:33.063Z,14.02
2018-02-24T12:12:00.600Z,13.73
2018-02-24T12:14:28.127Z,16.30
2018-02-24T12:16:56.454Z,15.80
2018-02-24T12:19:24.022Z,15.82
2018-02-24T12:21:51.567Z,15.07
2018-02-24T12:24:19.120Z,15.10
2018-02-24T12:26:47.434Z,14.87
2018-02-24T12:29:15.046Z,14.87
2018-02-24T12:31:42.604Z,15.32
2018-02-24T12:34:10.154Z,14.35
2018-02-24T12:36:37.723Z,13.90
2018-02-24T12:39:05.283Z,14.30
2018-02-24T12:41:33.579Z,12.88
2018-02-24T12:44:01.156Z,14.40
2018-02-24T12:46:28.735Z,14.68
2018-02-24T12:48:57.143Z,14.50
2018-02-24T12:51:24.674Z,13.00
2018-02-24T12:53:52.989Z,15.35
2018-02-24T12:56:20.541Z,13.52
2018-02-24T12:58:48.137Z,13.98
2018-02-24T13:01:15.691Z,13.68
2018-02-24T13:03:43.285Z,14.45
2018-02-24T13:06:10.920Z,13.00
2018-02-24T13:08:38.501Z,13.75
2018-02-24T13:11:06.061Z,13.75
2018-02-24T13:13:33.624Z,12.50
2018-02-24T13:16:01.165Z,12.70
2018-02-24T13:18:29.460Z,13.30
2018-02-24T13:20:57.030Z,12.43
2018-02-24T13:23:24.558Z,12.05
2018-02-24T13:25:52.103Z,12.50
2018-02-24T13:28:19.662Z,12.25
2018-02-24T13:30:47.188Z,12.70
2018-02-24T13:33:14.899Z,12.50
2018-02-24T13:35:42.443Z,12.43
2018-02-24T13:38:10.036Z,12.10
2018-02-24T13:40:37.640Z,12.10
2018-02-24T13:43:05.938Z,11.77
2018-02-24T13:45:33.508Z,11.63
2018-02-24T13:48:01.137Z,11.80
2018-02-24T13:50:28.694Z,11.73
2018-02-24T13:52:56.244Z,10.93
2018-02-24T13:55:23.786Z,10.10
2018-02-24T13:57:51.455Z,10.38
2018-02-24T14:00:18.982Z,11.63
2018-02-24T14:02:47.293Z,10.88
2018-02-24T14:05:14.832Z,10.32
2018-02-24T14:07:43.170Z,10.00
2018-02-24T14:10:10.786Z,8.30
2018-02-24T14:12:38.335Z,9.95
2018-02-24T14:15:06.661Z,8.45
2018-02-24T14:17:34.202Z,8.45
2018-02-24T14:20:01.828Z,8.40
2018-02-24T14:22:29.447Z,9.13
2018-02-24T14:24:56.952Z,9.45
2018-02-24T14:27:24.499Z,8.77
2018-02-24T14:29:52.038Z,9.60
2018-02-24T14:32:19.581Z,8.85
2018-02-24T14:34:47.921Z,7.70
2018-02-24T14:37:15.460Z,8.13
2018-02-24T14:39:42.988Z,7.93
2018-02-24T14:42:11.303Z,7.60
2018-02-24T14:44:38.842Z,8.25
2018-02-24T14:47:07.170Z,7.10
2018-02-24T14:49:34.703Z,7.62
2018-02-24T14:52:02.240Z,7.05
2018-02-24T14:54:29.785Z,6.37
2018-02-24T14:56:57.317Z,5.62
2018-02-24T14:59:27.756Z,6.18
2018-02-24T15:01:55.283Z,5.90
2018-02-24T15:04:23.569Z,6.28
2018-02-24T15:06:51.868Z,5.90
2018-02-24T15:09:19.592Z,5.70
2018-02-24T15:11:47.144Z,5.70
2018-02-24T15:14:14.708Z,5.62
2018-02-24T15:16:42.245Z,6.18
2018-02-24T15:19:09.787Z,5.68
2018-02-24T15:21:38.065Z,5.57
2018-02-24T15:24:05.610Z,6.10
2018-02-24T15:26:33.152Z,5.22
2018-02-24T15:29:01.446Z,5.65
2018-02-24T15:31:29.060Z,5.47
2018-02-24T15:33:56.674Z,5.87
2018-02-24T15:36:24.250Z,6.40
2018-02-24T15:38:51.968Z,6.22
2018-02-24T15:41:19.512Z,6.55
2018-02-24T15:43:47.821Z,6.35
2018-02-24T15:46:15.375Z,6.20
2018-02-24T15:48:43.036Z,6.90
2018-02-24T15:51:10.570Z,7.20
2018-02-24T15:53:39.714Z,7.05
2018-02-24T15:56:07.261Z,7.00
2018-02-24T15:58:35.564Z,7.20
2018-02-24T16:01:03.187Z,6.95
2018-02-24T16:03:30.724Z,8.18
2018-02-24T16:05:58.256Z,7.53
2018-02-24T16:08:25.808Z,7.57
2018-02-24T16:10:53.353Z,7.57
2018-02-24T16:13:20.908Z,7.85
2018-02-24T16:15:48.442Z,7.97
2018-02-24T16:18:16.097Z,7.78
2018-02-24T16:20:43.627Z,7.30
2018-02-24T16:23:11.945Z,7.95
2018-02-24T16:25:39.490Z,7.90
2018-02-24T16:28:07.077Z,8.43
2018-02-24T16:30:34.636Z,8.68
2018-02-24T16:33:02.178Z,8.20
2018-02-24T16:35:29.961Z,8.75
2018-02-24T16:37:57.506Z,8.27
2018-02-24T16:40:25.808Z,8.20
2018-02-24T16:42:53.338Z,7.70
2018-02-24T16:45:20.965Z,7.25
2018-02-24T16:47:48.504Z,6.85
2018-02-24T16:50:16.049Z,7.25
2018-02-24T16:52:44.358Z,7.80
2018-02-24T16:55:11.906Z,7.15
2018-02-24T16:57:40.209Z,7.65
2018-02-24T17:00:07.846Z,7.40
2018-02-24T17:02:35.386Z,7.28
2018-02-24T17:05:02.964Z,7.37
2018-02-24T17:07:30.519Z,7.68
2018-02-24T17:09:58.067Z,7.62
2018-02-24T17:12:25.605Z,7.60
2018-02-24T17:14:53.167Z,7.12
2018-02-24T17:17:20.706Z,7.10
2018-02-24T17:19:49.019Z,7.65
2018-02-24T17:22:16.556Z,7.12
2018-02-24T17:24:44.856Z,7.18
2018-02-24T17:27:12.430Z,7.32
2018-02-24T17:29:40.002Z,7.15
2018-02-24T17:32:08.277Z,7.40
2018-02-24T17:34:35.849Z,6.93
2018-02-24T17:37:03.440Z,7.45
2018-02-24T17:39:31.002Z,7.60
2018-02-24T17:41:58.549Z,7.97
2018-02-24T17:44:26.165Z,7.93
2018-02-24T17:46:53.702Z,7.30
2018-02-24T17:49:21.329Z,7.43
2018-02-24T17:51:48.925Z,7.78
2018-02-24T17:54:16.512Z,7.28
2018-02-24T17:56:44.061Z,7.50
2018-02-24T17:59:11.759Z,8.18
2018-02-24T18:01:39.326Z,32.15
2018-02-24T18:04:07.637Z,31.90
2018-02-24T18:06:35.172Z,15.40
2018-02-24T18:09:02.781Z,8.02
2018-02-24T18:11:30.343Z,7.87
2018-02-24T18:13:57.865Z,7.57
2018-02-24T18:16:25.499Z,7.72
2018-02-24T18:18:53.063Z,7.93
2018-02-24T18:21:20.603Z,8.93
2018-02-24T18:23:48.152Z,8.73
2018-02-24T18:26:16.464Z,9.15
2018-02-24T18:28:44.036Z,8.57
2018-02-24T18:31:11.618Z,8.18
2018-02-24T18:33:39.162Z,8.60
2018-02-24T18:36:06.706Z,9.05
2018-02-24T18:38:34.283Z,9.40
2018-02-24T18:41:01.901Z,9.32
2018-02-24T18:43:30.351Z,8.95
2018-02-24T18:45:57.887Z,9.25
2018-02-24T18:48:25.423Z,8.73
2018-02-24T18:50:52.980Z,8.93
2018-02-24T18:53:20.835Z,9.20
2018-02-24T18:55:48.371Z,9.40
2018-02-24T18:58:15.915Z,9.27
2018-02-24T19:00:44.258Z,9.10
2018-02-24T19:03:11.813Z,10.00
2018-02-24T19:05:39.396Z,8.57
2018-02-24T19:08:06.934Z,19.85
2018-02-24T19:10:34.482Z,19.20
2018-02-24T19:13:02.015Z,22.50
2018-02-24T19:15:30.471Z,41.37
2018-02-24T19:17:58.070Z,10.95
2018-02-24T19:20:25.691Z,8.65
2018-02-24T19:22:53.243Z,8.20
2018-02-24T19:25:20.792Z,8.07
2018-02-24T19:27:48.341Z,8.50
2018-02-24T19:30:16.694Z,7.62
2018-02-24T19:32:44.262Z,8.38
2018-02-24T19:35:11.849Z,7.10
2018-02-24T19:37:40.159Z,7.70
2018-02-24T19:40:07.718Z,7.90
2018-02-24T19:42:35.296Z,8.18
2018-02-24T19:45:02.859Z,7.30
2018-02-24T19:47:30.426Z,7.57
2018-02-24T19:49:57.995Z,6.90
2018-02-24T19:52:25.565Z,7.30
2018-02-24T19:54:53.132Z,7.20
2018-02-24T19:57:20.746Z,6.97
2018-02-24T19:59:48.342Z,7.20
2018-02-24T20:02:15.911Z,6.90
2018-02-24T20:04:43.482Z,6.20
2018-02-24T20:07:11.077Z,7.03
2018-02-24T20:09:38.673Z,6.93
2018-02-24T20:12:06.240Z,6.80
2018-02-24T20:14:33.789Z,6.32
2018-02-24T20:17:01.388Z,6.12
2018-02-24T20:19:29.731Z,6.15
2018-02-24T20:21:57.290Z,5.80
2018-02-24T20:24:25.630Z,6.15
2018-02-24T20:26:53.234Z,5.78
2018-02-24T20:29:20.879Z,5.47
2018-02-24T20:31:48.511Z,6.00
2018-02-24T20:34:16.080Z,5.45
2018-02-24T20:36:44.398Z,6.03
2018-02-24T20:39:11.964Z,5.10
2018-02-24T20:41:39.578Z,5.50
2018-02-24T20:44:07.772Z,5.37
2018-02-24T20:46:35.320Z,5.40
2018-02-24T20:49:02.838Z,4.90
2018-02-24T20:51:30.421Z,5.25
2018-02-24T20:53:57.995Z,5.25
2018-02-24T20:56:25.566Z,5.32
2018-02-24T20:58:53.127Z,5.07
2018-02-24T21:01:20.674Z,5.30
2018-02-24T21:03:48.252Z,5.50
2018-02-24T21:06:15.799Z,5.18
2018-02-24T21:08:43.330Z,4.80
2018-02-24T21:11:10.886Z,5.25
2018-02-24T21:13:38.429Z,4.95
2018-02-24T21:16:05.985Z,5.57
2018-02-24T21:18:33.523Z,5.03
2018-02-24T21:21:01.116Z,4.60
2018-02-24T21:23:28.652Z,4.75
2018-02-24T21:25:56.240Z,4.75
2018-02-24T21:28:23.790Z,4.60
2018-02-24T21:30:51.317Z,4.25
2018-02-24T21:33:19.035Z,4.68
2018-02-24T21:35:46.653Z,28.80
2018-02-24T21:38:14.320Z,21.87
2018-02-24T21:40:42.624Z,5.12
2018-02-24T21:43:10.933Z,4.00
2018-02-24T21:45:38.597Z,4.00
2018-02-24T21:48:06.163Z,4.25
2018-02-24T21:50:33.698Z,4.37
2018-02-24T21:53:01.248Z,4.30
2018-02-24T21:55:29.579Z,4.40
2018-02-24T21:57:57.153Z,4.20
2018-02-24T22:00:24.709Z,4.03
2018-02-24T22:02:52.260Z,4.30
2018-02-24T22:05:19.866Z,4.35
2018-02-24T22:07:48.174Z,4.07
2018-02-24T22:10:16.505Z,3.90
2018-02-24T22:12:44.096Z,4.20
2018-02-24T22:15:11.620Z,3.70
2018-02-24T22:17:39.159Z,3.55
2018-02-24T22:20:07.462Z,3.85
2018-02-24T22:22:35.026Z,3.90
2018-02-24T22:25:02.576Z,3.17
2018-02-24T22:27:30.888Z,3.75
2018-02-24T22:29:58.431Z,3.60
2018-02-24T22:32:26.757Z,3.05
2018-02-24T22:34:54.316Z,3.65
2018-02-24T22:37:21.963Z,4.10
2018-02-24T22:39:49.499Z,3.25
2018-02-24T22:42:17.812Z,3.17
2018-02-24T22:44:45.351Z,3.58
2018-02-24T22:47:13.673Z,3.08
2018-02-24T22:49:41.249Z,3.30
2018-02-24T22:52:08.753Z,3.25
2018-02-24T22:54:37.081Z,3.25
2018-02-24T22:57:04.612Z,3.25
2018-02-24T22:59:32.928Z,3.42
2018-02-24T23:02:00.502Z,3.00
2018-02-24T23:04:28.046Z,2.85
2018-02-24T23:06:55.585Z,3.25
2018-02-24T23:09:23.889Z,3.12
2018-02-24T23:11:51.564Z,3.05
2018-02-24T23:14:19.137Z,2.87
2018-02-24T23:16:46.677Z,3.05
2018-02-24T23:19:14.985Z,2.55
2018-02-24T23:21:42.750Z,2.85
2018-02-24T23:24:10.342Z,2.80
2018-02-24T23:26:37.892Z,2.90
2018-02-24T23:29:05.485Z,2.78
2018-02-24T23:31:33.071Z,2.80
2018-02-24T23:34:00.732Z,3.00
2018-02-24T23:36:28.312Z,2.80
2018-02-24T23:38:55.879Z,3.42
2018-02-24T23:41:23.532Z,2.92
2018-02-24T23:43:51.142Z,3.15
2018-02-24T23:46:18.675Z,3.08
2018-02-24T23:48:46.329Z,2.95
2018-02-24T23:51:13.912Z,3.00
2018-02-24T23:53:41.460Z,2.97
2018-02-24T23:56:09.084Z,2.90
2018-02-24T23:58:36.627Z,3.25
